createdAt,value
2019-05-09T00:01:45.024Z,1.50
2019-05-09T00:04:50.161Z,1.30
2019-05-09T00:07:55.274Z,0.97
2019-05-09T00:11:00.439Z,1.13
2019-05-09T00:14:05.553Z,1.00
2019-05-09T00:17:10.725Z,1.10
2019-05-09T00:20:24.229Z,1.20
2019-05-09T00:23:29.407Z,1.10
2019-05-09T00:26:34.568Z,1.40
2019-05-09T00:29:46.004Z,1.23
2019-05-09T00:32:53.340Z,1.47
2019-05-09T00:35:57.961Z,1.47
2019-05-09T00:39:04.076Z,1.10
2019-05-09T00:42:09.477Z,1.10
2019-05-09T00:45:33.361Z,1.17
2019-05-09T00:49:05.095Z,1.40
2019-05-09T00:52:10.392Z,1.30
2019-05-09T00:55:15.544Z,1.20
2019-05-09T00:58:20.658Z,1.27
2019-05-09T01:01:25.884Z,1.37
2019-05-09T01:04:33.116Z,1.20
2019-05-09T01:07:37.805Z,1.50
2019-05-09T01:10:43.895Z,1.30
2019-05-09T01:13:49.052Z,1.40
2019-05-09T01:16:54.263Z,1.40
2019-05-09T01:19:59.824Z,1.30
2019-05-09T01:23:04.960Z,1.10
2019-05-09T01:26:10.101Z,1.50
2019-05-09T01:29:15.283Z,1.30
2019-05-09T01:32:34.306Z,1.00
2019-05-09T01:35:39.629Z,1.17
2019-05-09T01:38:44.967Z,1.43
2019-05-09T01:41:50.065Z,1.13
2019-05-09T01:44:55.312Z,1.50
2019-05-09T01:48:00.469Z,1.13
2019-05-09T01:51:05.590Z,1.13
2019-05-09T01:54:13.128Z,1.53
2019-05-09T01:57:17.630Z,1.30
2019-05-09T02:00:23.942Z,1.40
2019-05-09T02:03:29.361Z,1.23
2019-05-09T02:06:34.493Z,1.60
2019-05-09T02:09:39.628Z,1.20
2019-05-09T02:12:44.795Z,1.27
2019-05-09T02:16:04.540Z,1.30
2019-05-09T02:19:25.919Z,1.57
2019-05-09T02:22:34.705Z,1.70
2019-05-09T02:25:40.928Z,1.30
2019-05-09T02:28:46.039Z,1.53
2019-05-09T02:31:51.152Z,1.63
2019-05-09T02:34:56.392Z,1.40
2019-05-09T02:38:01.533Z,1.40
2019-05-09T02:41:08.558Z,1.60
2019-05-09T02:44:13.481Z,1.57
2019-05-09T02:47:21.159Z,1.60
2019-05-09T02:50:28.595Z,1.80
2019-05-09T02:53:33.269Z,1.70
2019-05-09T02:56:38.719Z,1.53
2019-05-09T02:59:51.223Z,1.30
2019-05-09T03:03:21.629Z,1.10
2019-05-09T03:06:28.376Z,1.60
2019-05-09T03:09:33.801Z,1.90
2019-05-09T03:12:39.883Z,1.70
2019-05-09T03:15:49.205Z,1.30
2019-05-09T03:18:53.022Z,2.27
2019-05-09T03:22:02.411Z,1.20
2019-05-09T03:25:08.998Z,1.57
2019-05-09T03:28:39.680Z,2.10
2019-05-09T03:31:49.745Z,1.57
2019-05-09T03:34:52.695Z,1.50
2019-05-09T03:38:08.122Z,1.70
2019-05-09T03:41:13.900Z,1.40
2019-05-09T03:44:19.050Z,1.30
2019-05-09T03:47:29.919Z,1.40
2019-05-09T03:50:35.067Z,1.70
2019-05-09T03:53:40.198Z,1.80
2019-05-09T03:56:49.384Z,1.30
2019-05-09T03:59:54.600Z,1.00
2019-05-09T04:02:59.815Z,1.10
2019-05-09T04:06:04.954Z,1.50
2019-05-09T04:09:10.024Z,1.30
2019-05-09T04:12:15.230Z,1.83
2019-05-09T04:15:20.479Z,1.20
2019-05-09T04:18:27.591Z,1.40
2019-05-09T04:21:32.387Z,1.30
2019-05-09T04:24:38.402Z,1.37
2019-05-09T04:27:45.067Z,2.10
2019-05-09T04:30:50.234Z,1.30
2019-05-09T04:33:57.277Z,1.20
2019-05-09T04:37:02.186Z,1.20
2019-05-09T04:40:08.226Z,1.03
2019-05-09T04:43:18.651Z,1.50
2019-05-09T04:46:24.198Z,1.80
2019-05-09T04:49:29.646Z,2.10
2019-05-09T04:52:34.304Z,1.27
2019-05-09T04:55:39.718Z,1.53
2019-05-09T04:58:44.847Z,1.40
2019-05-09T05:02:18.297Z,1.30
2019-05-09T05:05:23.601Z,1.93
2019-05-09T05:08:28.790Z,1.50
2019-05-09T05:11:33.979Z,1.10
2019-05-09T05:14:39.078Z,1.33
2019-05-09T05:17:44.202Z,1.30
2019-05-09T05:20:49.376Z,1.10
2019-05-09T05:24:09.381Z,2.03
2019-05-09T05:27:14.496Z,1.37
2019-05-09T05:30:19.685Z,1.33
2019-05-09T05:33:53.747Z,1.63
2019-05-09T05:36:58.209Z,1.30
2019-05-09T05:40:03.500Z,1.60
2019-05-09T05:43:08.951Z,1.30
2019-05-09T05:46:41.980Z,1.50
2019-05-09T05:49:48.806Z,1.30
2019-05-09T05:52:54.023Z,1.57
2019-05-09T05:55:59.108Z,1.57
2019-05-09T05:59:04.288Z,1.80
2019-05-09T06:02:09.433Z,1.77
2019-05-09T06:05:14.553Z,1.90
2019-05-09T06:08:19.628Z,1.57
2019-05-09T06:11:24.791Z,1.70
2019-05-09T06:14:29.956Z,1.40
2019-05-09T06:17:35.074Z,1.20
2019-05-09T06:20:40.231Z,1.90
2019-05-09T06:23:48.097Z,1.53
2019-05-09T06:26:52.208Z,1.47
2019-05-09T06:29:58.135Z,1.27
2019-05-09T06:33:05.375Z,1.50
2019-05-09T06:36:10.646Z,1.13
2019-05-09T06:39:17.867Z,1.33
2019-05-09T06:42:25.511Z,0.90
2019-05-09T06:45:49.618Z,1.07
2019-05-09T06:49:19.496Z,1.83
2019-05-09T06:52:01.925Z,1.87
2019-05-09T06:55:08.630Z,1.10
2019-05-09T06:58:32.607Z,1.30
2019-05-09T07:01:49.873Z,0.87
2019-05-09T07:05:00.371Z,0.80
2019-05-09T07:08:13.108Z,1.10
2019-05-09T07:11:19.230Z,1.07
2019-05-09T07:14:33.959Z,1.00
2019-05-09T07:17:38.887Z,0.97
2019-05-09T07:20:45.271Z,1.00
2019-05-09T07:23:50.384Z,1.20
2019-05-09T07:26:55.527Z,1.20
2019-05-09T07:30:03.523Z,0.90
2019-05-09T07:33:39.911Z,1.67
2019-05-09T07:36:47.463Z,1.40
2019-05-09T07:39:52.000Z,0.97
2019-05-09T07:42:58.422Z,1.00
2019-05-09T07:46:23.765Z,0.90
2019-05-09T07:49:30.410Z,1.00
2019-05-09T07:52:35.589Z,1.70
2019-05-09T07:55:40.725Z,1.70
2019-05-09T07:58:47.744Z,1.70
2019-05-09T08:01:52.746Z,1.57
2019-05-09T08:04:58.271Z,1.07
2019-05-09T08:08:04.177Z,2.00
2019-05-09T08:11:09.337Z,1.30
2019-05-09T08:14:14.478Z,1.50
2019-05-09T08:17:19.732Z,1.10
2019-05-09T08:20:24.824Z,1.57
2019-05-09T08:23:29.968Z,1.13
2019-05-09T08:26:35.184Z,0.90
2019-05-09T08:29:40.342Z,1.00
2019-05-09T08:32:48.010Z,0.87
2019-05-09T08:35:52.880Z,0.70
2019-05-09T08:38:58.832Z,1.27
2019-05-09T08:42:04.235Z,1.20
2019-05-09T08:45:24.183Z,1.20
2019-05-09T08:48:18.293Z,1.00
2019-05-09T08:51:55.748Z,0.93
2019-05-09T08:54:54.634Z,1.00
2019-05-09T08:57:59.820Z,1.30
2019-05-09T09:01:05.001Z,1.10
2019-05-09T09:04:10.125Z,1.40
2019-05-09T09:07:15.411Z,1.30
2019-05-09T09:10:20.575Z,0.90
2019-05-09T09:13:25.703Z,1.00
2019-05-09T09:16:30.802Z,1.10
2019-05-09T09:19:38.379Z,1.00
2019-05-09T09:22:42.828Z,0.97
2019-05-09T09:25:48.693Z,0.90
2019-05-09T09:28:54.040Z,1.00
2019-05-09T09:31:59.214Z,0.80
2019-05-09T09:35:04.386Z,0.90
2019-05-09T09:38:09.656Z,0.80
2019-05-09T09:41:14.789Z,0.90
2019-05-09T09:44:22.552Z,0.90
2019-05-09T09:47:28.595Z,0.70
2019-05-09T09:50:33.915Z,0.80
2019-05-09T09:53:39.128Z,1.70
2019-05-09T09:56:47.902Z,0.83
2019-05-09T10:00:10.975Z,0.67
2019-05-09T10:03:18.436Z,0.90
2019-05-09T10:06:22.897Z,1.40
2019-05-09T10:09:28.096Z,0.93
2019-05-09T10:12:33.320Z,1.70
2019-05-09T10:15:58.773Z,1.33
2019-05-09T10:19:10.757Z,1.30
2019-05-09T10:22:23.791Z,1.57
2019-05-09T10:25:27.643Z,0.70
2019-05-09T10:28:32.537Z,0.97
2019-05-09T10:31:39.241Z,0.83
2019-05-09T10:34:44.506Z,0.87
2019-05-09T10:37:49.700Z,0.83
2019-05-09T10:40:54.872Z,0.80
2019-05-09T10:44:25.075Z,0.93
2019-05-09T10:47:32.052Z,0.80
2019-05-09T10:50:44.933Z,0.90
2019-05-09T10:53:44.071Z,0.60
2019-05-09T10:56:50.260Z,0.90
2019-05-09T10:59:57.820Z,0.80
2019-05-09T11:03:02.250Z,1.00
2019-05-09T11:06:08.645Z,0.90
2019-05-09T11:09:13.982Z,1.03
2019-05-09T11:12:19.171Z,0.90
2019-05-09T11:15:24.447Z,0.90
2019-05-09T11:18:29.600Z,1.50
2019-05-09T11:21:34.752Z,1.30
2019-05-09T11:24:46.101Z,1.77
2019-05-09T11:27:51.237Z,1.10
2019-05-09T11:30:53.610Z,1.00
2019-05-09T11:33:58.808Z,1.00
2019-05-09T11:37:03.945Z,1.40
2019-05-09T11:40:09.702Z,1.87
2019-05-09T11:43:14.891Z,2.87
2019-05-09T11:46:20.075Z,1.80
2019-05-09T11:49:25.240Z,1.70
2019-05-09T11:52:30.334Z,0.70
2019-05-09T11:55:39.452Z,0.77
2019-05-09T11:58:42.303Z,0.90
2019-05-09T12:01:48.226Z,0.90
2019-05-09T12:04:53.694Z,1.10
2019-05-09T12:07:59.072Z,1.70
2019-05-09T12:11:04.287Z,1.50
2019-05-09T12:14:09.509Z,2.67
2019-05-09T12:17:14.672Z,1.67
2019-05-09T12:20:19.900Z,1.90
2019-05-09T12:23:25.117Z,1.50
2019-05-09T12:26:30.307Z,1.23
2019-05-09T12:29:35.521Z,1.00
2019-05-09T12:32:40.677Z,1.17
2019-05-09T12:35:47.786Z,1.53
2019-05-09T12:38:52.787Z,0.97
2019-05-09T12:41:59.007Z,1.07
2019-05-09T12:45:04.455Z,1.03
2019-05-09T12:48:14.801Z,1.10
2019-05-09T12:51:18.421Z,1.60
2019-05-09T12:54:23.436Z,0.80
2019-05-09T12:57:29.031Z,0.97
2019-05-09T13:00:34.176Z,1.00
2019-05-09T13:03:39.320Z,0.90
2019-05-09T13:06:44.601Z,1.00
2019-05-09T13:09:52.541Z,1.20
2019-05-09T13:12:56.583Z,1.20
2019-05-09T13:16:14.133Z,1.50
2019-05-09T13:19:19.892Z,3.87
2019-05-09T13:22:25.021Z,1.50
2019-05-09T13:25:30.299Z,0.60
2019-05-09T13:28:37.638Z,0.73
2019-05-09T13:31:42.216Z,1.00
2019-05-09T13:34:48.663Z,0.90
2019-05-09T13:37:54.049Z,0.90
2019-05-09T13:40:59.229Z,1.17
2019-05-09T13:44:06.199Z,2.20
2019-05-09T13:47:11.578Z,1.73
2019-05-09T13:50:18.636Z,1.20
2019-05-09T13:53:23.510Z,1.20
2019-05-09T13:56:28.715Z,1.40
2019-05-09T13:59:33.850Z,1.80
2019-05-09T14:02:38.960Z,1.43
2019-05-09T14:05:44.116Z,1.73
2019-05-09T14:08:49.352Z,1.63
2019-05-09T14:11:54.550Z,1.30
2019-05-09T14:14:59.804Z,1.10
2019-05-09T14:18:05.105Z,0.80
2019-05-09T14:21:10.213Z,1.07
2019-05-09T14:24:18.849Z,1.10
2019-05-09T14:27:22.175Z,1.73
2019-05-09T14:30:28.568Z,1.13
2019-05-09T14:33:33.823Z,1.70
2019-05-09T14:36:44.484Z,4.00
2019-05-09T14:39:55.734Z,3.00
2019-05-09T14:42:52.717Z,2.17
2019-05-09T14:45:57.898Z,0.60
2019-05-09T14:49:03.040Z,0.80
2019-05-09T14:52:08.270Z,0.60
2019-05-09T14:55:13.652Z,0.80
2019-05-09T14:58:18.745Z,0.90
2019-05-09T15:01:23.915Z,0.90
2019-05-09T15:04:29.087Z,0.80
2019-05-09T15:07:34.253Z,0.53
2019-05-09T15:10:39.467Z,0.87
2019-05-09T15:13:44.603Z,0.60
2019-05-09T15:16:49.735Z,1.30
2019-05-09T15:19:59.629Z,0.70
2019-05-09T15:23:01.827Z,0.90
2019-05-09T15:26:07.730Z,0.97
2019-05-09T15:29:12.852Z,0.80
2019-05-09T15:32:18.418Z,1.10
2019-05-09T15:35:23.595Z,0.97
2019-05-09T15:38:29.185Z,1.20
2019-05-09T15:41:34.382Z,1.20
2019-05-09T15:44:39.538Z,1.57
2019-05-09T15:47:44.673Z,1.90
2019-05-09T15:50:49.950Z,1.50
2019-05-09T15:53:55.101Z,2.50
2019-05-09T15:57:00.907Z,2.20
2019-05-09T16:00:08.219Z,1.60
2019-05-09T16:03:14.042Z,7.50
2019-05-09T16:06:20.432Z,3.10
2019-05-09T16:09:28.420Z,3.73
2019-05-09T16:12:33.178Z,3.30
2019-05-09T16:15:38.386Z,1.40
2019-05-09T16:18:43.777Z,1.30
2019-05-09T16:21:48.940Z,1.30
2019-05-09T16:24:54.144Z,1.20
2019-05-09T16:27:59.367Z,1.73
2019-05-09T16:31:04.546Z,1.53
2019-05-09T16:34:09.771Z,2.13
2019-05-09T16:37:14.874Z,3.60
2019-05-09T16:40:20.075Z,3.87
2019-05-09T16:43:25.309Z,3.63
2019-05-09T16:46:30.510Z,2.80
2019-05-09T16:49:35.693Z,3.43
2019-05-09T16:52:43.445Z,1.80
2019-05-09T16:55:47.637Z,3.10
2019-05-09T16:58:52.855Z,1.33
2019-05-09T17:01:57.998Z,1.03
2019-05-09T17:05:03.319Z,1.20
2019-05-09T17:08:08.444Z,1.33
2019-05-09T17:11:19.214Z,1.33
2019-05-09T17:14:22.863Z,1.10
2019-05-09T17:17:28.045Z,0.70
2019-05-09T17:20:52.110Z,0.60
2019-05-09T17:23:58.341Z,1.00
2019-05-09T17:27:03.508Z,1.80
2019-05-09T17:30:08.882Z,1.40
2019-05-09T17:33:14.090Z,1.00
2019-05-09T17:36:19.328Z,1.30
2019-05-09T17:39:24.470Z,1.10
2019-05-09T17:42:29.597Z,1.07
2019-05-09T17:45:39.312Z,1.07
2019-05-09T17:48:42.013Z,1.33
2019-05-09T17:51:48.199Z,1.00
2019-05-09T17:54:53.575Z,1.20
2019-05-09T17:57:58.792Z,0.80
2019-05-09T18:01:05.078Z,1.10
2019-05-09T18:04:10.357Z,1.40
2019-05-09T18:07:17.830Z,1.00
2019-05-09T18:10:22.517Z,1.20
2019-05-09T18:13:30.251Z,5.87
2019-05-09T18:16:34.523Z,1.70
2019-05-09T18:19:39.684Z,2.03
2019-05-09T18:22:44.886Z,1.10
2019-05-09T18:25:50.125Z,1.23
2019-05-09T18:28:58.522Z,1.67
2019-05-09T18:32:12.963Z,2.27
2019-05-09T18:35:20.429Z,1.87
2019-05-09T18:38:29.824Z,2.40
2019-05-09T18:41:34.929Z,2.17
2019-05-09T18:44:40.045Z,2.80
2019-05-09T18:47:45.287Z,1.50
2019-05-09T18:50:50.481Z,2.20
2019-05-09T18:53:55.597Z,1.80
2019-05-09T18:57:00.807Z,4.20
2019-05-09T19:00:07.232Z,2.40
2019-05-09T19:03:12.428Z,2.10
2019-05-09T19:06:17.586Z,2.07
2019-05-09T19:09:22.907Z,1.73
2019-05-09T19:12:28.012Z,1.43
2019-05-09T19:15:39.353Z,1.93
2019-05-09T19:19:09.704Z,1.60
2019-05-09T19:22:22.380Z,1.70
2019-05-09T19:25:21.670Z,1.93
2019-05-09T19:28:26.758Z,1.70
2019-05-09T19:31:32.028Z,1.60
2019-05-09T19:34:37.186Z,2.13
2019-05-09T19:37:43.464Z,1.77
2019-05-09T19:40:48.619Z,5.20
2019-05-09T19:43:53.816Z,3.00
2019-05-09T19:47:01.494Z,2.10
2019-05-09T19:50:06.320Z,3.47
2019-05-09T19:53:11.482Z,2.80
2019-05-09T19:56:16.690Z,4.10
2019-05-09T19:59:21.951Z,3.30
2019-05-09T20:02:27.120Z,2.57
2019-05-09T20:05:33.379Z,3.57
2019-05-09T20:08:38.659Z,6.13
2019-05-09T20:11:54.506Z,4.47
2019-05-09T20:14:59.733Z,3.80
2019-05-09T20:18:04.956Z,4.47
2019-05-09T20:21:10.179Z,4.17
2019-05-09T20:24:15.359Z,3.77
2019-05-09T20:27:20.497Z,3.87
2019-05-09T20:30:25.772Z,4.40
2019-05-09T20:33:31.190Z,4.03
2019-05-09T20:36:38.106Z,4.00
2019-05-09T20:39:43.416Z,3.80
2019-05-09T20:42:48.755Z,3.60
2019-05-09T20:45:54.180Z,4.23
2019-05-09T20:48:59.656Z,3.97
2019-05-09T20:52:05.159Z,3.67
2019-05-09T20:55:10.616Z,4.57
2019-05-09T20:58:16.069Z,4.50
2019-05-09T21:01:21.526Z,4.20
2019-05-09T21:04:26.965Z,4.00
2019-05-09T21:07:32.322Z,3.00
2019-05-09T21:10:37.636Z,4.00
2019-05-09T21:13:48.393Z,3.07
2019-05-09T21:16:49.941Z,5.70
2019-05-09T21:19:55.415Z,8.00
2019-05-09T21:23:00.742Z,6.20
2019-05-09T21:26:06.363Z,6.37
2019-05-09T21:29:11.623Z,6.63
2019-05-09T21:32:17.038Z,8.87
2019-05-09T21:35:22.168Z,5.30
2019-05-09T21:38:27.400Z,3.20
2019-05-09T21:41:32.544Z,2.97
2019-05-09T21:44:37.834Z,1.47
2019-05-09T21:47:43.044Z,1.40
2019-05-09T21:50:48.185Z,1.50
2019-05-09T21:53:53.314Z,1.20
2019-05-09T21:56:58.573Z,1.10
2019-05-09T22:00:03.970Z,1.37
2019-05-09T22:03:10.774Z,1.20
2019-05-09T22:06:17.521Z,1.30
2019-05-09T22:09:23.807Z,1.50
2019-05-09T22:12:28.978Z,1.20
2019-05-09T22:15:34.114Z,1.10
2019-05-09T22:18:39.218Z,1.10
2019-05-09T22:21:45.464Z,1.33
2019-05-09T22:24:50.584Z,1.07
2019-05-09T22:27:55.916Z,1.07
2019-05-09T22:31:01.035Z,1.10
2019-05-09T22:34:06.163Z,1.10
2019-05-09T22:37:11.420Z,0.83
2019-05-09T22:40:16.959Z,0.93
2019-05-09T22:43:22.073Z,0.70
2019-05-09T22:46:27.215Z,0.90
2019-05-09T22:49:32.300Z,0.60
2019-05-09T22:52:37.560Z,0.70
2019-05-09T22:55:42.718Z,0.70
2019-05-09T22:58:47.861Z,0.90
2019-05-09T23:01:53.174Z,0.90
2019-05-09T23:04:58.275Z,0.80
2019-05-09T23:08:03.373Z,0.90
2019-05-09T23:11:08.610Z,0.83
2019-05-09T23:14:13.801Z,1.83
2019-05-09T23:17:18.920Z,0.80
2019-05-09T23:20:41.567Z,0.80
2019-05-09T23:23:55.713Z,0.93
2019-05-09T23:27:00.967Z,1.00
2019-05-09T23:30:06.322Z,0.90
2019-05-09T23:33:11.646Z,0.60
2019-05-09T23:36:16.773Z,0.93
2019-05-09T23:39:24.366Z,1.03
2019-05-09T23:42:29.542Z,0.90
2019-05-09T23:45:34.763Z,1.00
2019-05-09T23:48:39.861Z,1.00
2019-05-09T23:51:48.850Z,1.00
2019-05-09T23:55:11.996Z,1.30
2019-05-09T23:58:35.094Z,1.30
